Time;durP1;ratioP1;P1;durP2;ratioP2;P2;SDS_P1;SDS_P2;PMS_P1;PMS_P2;Temp;Humidity;BMP_temperature;BMP_pressure;BME280_temperature;BME280_humidity;BME280_pressure;Samples;Min_cycle;Max_cycle;Signal;HPM_P1;HPM_P2
2022/07/07 00:00:02;;;;;;;58.67;49.85;;;24.20;55.40;;;;;;5016999;27;89445;-53
2022/07/07 00:02:27;;;;;;;58.97;49.70;;;24.20;55.30;;;;;;5007116;27;92024;-51
2022/07/07 00:04:53;;;;;;;59.40;49.65;;;24.20;55.30;;;;;;5023421;27;89937;-54
2022/07/07 00:07:19;;;;;;;58.63;49.80;;;24.20;55.40;;;;;;5018243;27;90665;-48
2022/07/07 00:09:45;;;;;;;58.75;49.75;;;24.20;55.40;;;;;;5019101;27;89950;-48
2022/07/07 00:12:11;;;;;;;59.90;49.95;;;24.20;55.40;;;;;;5023126;27;92017;-50
2022/07/07 00:14:37;;;;;;;61.20;49.72;;;24.20;55.50;;;;;;5021077;27;89808;-50
2022/07/07 00:17:03;;;;;;;59.03;50.03;;;24.10;55.40;;;;;;5010185;27;91083;-52
2022/07/07 00:19:29;;;;;;;58.80;49.72;;;24.20;55.50;;;;;;5020303;27;90915;-52
2022/07/07 00:21:54;;;;;;;58.92;49.85;;;24.20;55.40;;;;;;5029520;27;91389;-54
2022/07/07 00:24:20;;;;;;;58.53;49.38;;;24.20;55.30;;;;;;5028187;27;89550;-53
2022/07/07 00:26:46;;;;;;;58.75;49.70;;;24.10;55.30;;;;;;5011350;27;90671;-52
2022/07/07 00:29:11;;;;;;;59.17;49.75;;;24.20;55.40;;;;;;5010147;27;90592;-50
2022/07/07 00:31:37;;;;;;;60.42;49.80;;;24.20;55.30;;;;;;5030555;27;90753;-54
2022/07/07 00:34:03;;;;;;;58.78;49.63;;;24.20;55.40;;;;;;5022484;27;91687;-52
2022/07/07 00:36:28;;;;;;;59.22;49.88;;;24.20;55.30;;;;;;5020026;27;89965;-51
2022/07/07 00:38:54;;;;;;;58.65;49.65;;;24.10;55.30;;;;;;5021468;27;90020;-50
2022/07/07 00:41:20;;;;;;;59.35;49.60;;;24.10;55.30;;;;;;5025939;27;90491;-51
2022/07/07 00:43:45;;;;;;;58.65;49.72;;;24.10;55.40;;;;;;5018261;27;89627;-51
2022/07/07 00:46:12;;;;;;;59.47;49.83;;;24.20;55.40;;;;;;5021624;27;90128;-52
2022/07/07 00:48:39;;;;;;;58.95;49.60;;;24.20;55.30;;;;;;5014720;27;89701;-48
2022/07/07 00:51:07;;;;;;;58.25;49.75;;;24.10;55.40;;;;;;5026011;27;90669;-55
2022/07/07 00:53:32;;;;;;;58.80;49.78;;;24.10;55.40;;;;;;5022102;27;90287;-49
2022/07/07 00:55:58;;;;;;;58.53;49.85;;;24.10;55.30;;;;;;5015797;27;90091;-48
2022/07/07 00:58:24;;;;;;;58.15;49.55;;;24.10;55.50;;;;;;5015344;27;90948;-48
2022/07/07 01:00:50;;;;;;;58.42;49.38;;;24.10;55.40;;;;;;5008222;27;89649;-51
2022/07/07 01:03:16;;;;;;;58.67;49.75;;;24.10;55.50;;;;;;5015751;27;89782;-54
2022/07/07 01:05:46;;;;;;;58.38;49.83;;;24.10;55.40;;;;;;5017153;27;91768;-51
2022/07/07 01:08:15;;;;;;;58.20;49.47;;;24.10;55.30;;;;;;5023628;27;91679;-52
2022/07/07 01:10:41;;;;;;;58.42;49.92;;;24.10;55.40;;;;;;5006087;27;93368;-53
2022/07/07 01:13:07;;;;;;;59.58;49.85;;;24.10;55.40;;;;;;5016343;27;95705;-51
2022/07/07 01:15:33;;;;;;;59.28;49.65;;;24.10;55.40;;;;;;5010682;27;92714;-51
2022/07/07 01:17:59;;;;;;;58.70;49.92;;;24.10;55.40;;;;;;5023742;27;92007;-47
2022/07/07 01:20:26;;;;;;;59.47;49.88;;;24.10;55.40;;;;;;5024387;27;90304;-54
2022/07/07 01:22:53;;;;;;;59.05;49.80;;;24.10;55.40;;;;;;5017430;27;89293;-51
2022/07/07 01:25:19;;;;;;;59.30;49.92;;;24.10;55.40;;;;;;5014244;27;89551;-53
2022/07/07 01:27:45;;;;;;;58.47;49.72;;;24.10;55.20;;;;;;5033197;27;89759;-49
2022/07/07 01:30:11;;;;;;;60.13;49.92;;;24.10;55.30;;;;;;5017233;27;91067;-51
2022/07/07 01:32:37;;;;;;;58.20;49.63;;;24.10;55.30;;;;;;5010024;27;89936;-52
2022/07/07 01:35:04;;;;;;;58.72;49.97;;;24.10;55.50;;;;;;5021971;27;90317;-51
2022/07/07 01:37:32;;;;;;;59.17;50.03;;;24.00;55.30;;;;;;5025861;27;90338;-53
2022/07/07 01:39:58;;;;;;;59.15;49.95;;;24.10;55.40;;;;;;5018550;27;89754;-48
2022/07/07 01:42:24;;;;;;;59.67;49.72;;;24.10;55.30;;;;;;5016574;27;96392;-52
2022/07/07 01:44:51;;;;;;;58.83;49.95;;;24.10;55.30;;;;;;5025846;27;90067;-51
2022/07/07 01:47:17;;;;;;;58.53;49.95;;;24.00;55.40;;;;;;5006951;27;90366;-51
2022/07/07 01:49:43;;;;;;;59.05;50.05;;;24.10;55.40;;;;;;5013937;27;90134;-49
2022/07/07 01:52:08;;;;;;;58.72;49.83;;;24.10;55.30;;;;;;5020310;27;89807;-50
2022/07/07 01:54:35;;;;;;;59.13;49.70;;;24.10;55.40;;;;;;5019242;27;91721;-51
2022/07/07 01:57:02;;;;;;;58.95;49.85;;;24.10;55.40;;;;;;5017053;27;93785;-52
2022/07/07 01:59:28;;;;;;;59.13;50.03;;;24.00;55.30;;;;;;5008696;27;90880;-55
2022/07/07 02:01:54;;;;;;;59.28;50.13;;;24.00;55.20;;;;;;5026709;27;94246;-50
2022/07/07 02:04:20;;;;;;;58.80;50.03;;;24.00;55.20;;;;;;5023677;27;89889;-51
2022/07/07 02:06:46;;;;;;;58.63;49.75;;;24.00;55.30;;;;;;5014442;27;92013;-50
2022/07/07 02:09:12;;;;;;;60.28;49.83;;;24.00;55.20;;;;;;5017033;27;91964;-50
2022/07/07 02:11:37;;;;;;;58.80;49.72;;;24.00;55.20;;;;;;5025363;27;88783;-53
2022/07/07 02:14:04;;;;;;;58.63;49.92;;;24.00;55.10;;;;;;5012528;27;90433;-48
2022/07/07 02:16:31;;;;;;;59.80;50.13;;;24.00;55.10;;;;;;5025244;27;90150;-52
2022/07/07 02:18:59;;;;;;;59.40;50.05;;;24.00;55.20;;;;;;5004447;27;96643;-49
2022/07/07 02:21:25;;;;;;;58.90;49.70;;;24.00;55.30;;;;;;5021754;27;89567;-52
2022/07/07 02:23:53;;;;;;;58.53;49.85;;;24.00;55.20;;;;;;5020840;27;90207;-53
2022/07/07 02:26:19;;;;;;;58.15;49.55;;;24.00;55.20;;;;;;5016857;27;89564;-55
2022/07/07 02:28:45;;;;;;;58.65;49.95;;;24.00;55.20;;;;;;5020582;27;94851;-50
2022/07/07 02:31:11;;;;;;;61.67;49.97;;;24.00;55.20;;;;;;5027247;27;90075;-50
2022/07/07 02:33:37;;;;;;;59.38;50.03;;;24.00;55.20;;;;;;5028412;27;90096;-50
2022/07/07 02:36:04;;;;;;;58.70;49.95;;;24.00;55.70;;;;;;5016266;27;89779;-53
2022/07/07 02:38:35;;;;;;;58.95;49.88;;;24.00;55.20;;;;;;5014570;27;92662;-49
2022/07/07 02:41:01;;;;;;;60.28;50.20;;;24.00;55.20;;;;;;5019503;27;92712;-53
2022/07/07 02:43:27;;;;;;;58.75;49.85;;;24.00;55.10;;;;;;5017689;27;90977;-52
2022/07/07 02:45:53;;;;;;;59.28;49.78;;;24.00;55.40;;;;;;5017340;27;92103;-54
2022/07/07 02:48:20;;;;;;;58.90;50.00;;;24.00;55.30;;;;;;5025926;27;90057;-50
2022/07/07 02:50:47;;;;;;;61.35;50.17;;;23.90;55.20;;;;;;5021163;27;90899;-54
2022/07/07 02:53:13;;;;;;;58.30;49.70;;;23.90;55.10;;;;;;5012494;27;90168;-53
2022/07/07 02:55:40;;;;;;;58.85;49.85;;;23.90;55.20;;;;;;5018486;27;90499;-53
2022/07/07 02:58:07;;;;;;;59.80;50.15;;;24.00;55.30;;;;;;5013175;27;95186;-53
2022/07/07 03:00:33;;;;;;;59.35;50.17;;;23.90;55.30;;;;;;5017397;27;89479;-50
2022/07/07 03:03:04;;;;;;;58.55;49.95;;;23.90;55.20;;;;;;5020377;27;90297;-55
2022/07/07 03:05:31;;;;;;;61.20;49.97;;;23.90;55.20;;;;;;5011295;27;92844;-50
2022/07/07 03:07:57;;;;;;;59.22;50.00;;;24.00;55.30;;;;;;5023127;27;90766;-51
2022/07/07 03:10:23;;;;;;;59.85;49.85;;;23.90;55.10;;;;;;5026260;27;89983;-51
2022/07/07 03:12:48;;;;;;;59.67;49.88;;;23.90;55.20;;;;;;5032093;27;90039;-54
2022/07/07 03:15:14;;;;;;;59.38;49.95;;;23.90;55.20;;;;;;5002785;27;89664;-52
2022/07/07 03:17:42;;;;;;;58.70;49.78;;;23.90;55.20;;;;;;5021735;27;89684;-47
2022/07/07 03:20:10;;;;;;;59.83;49.85;;;23.90;55.40;;;;;;5024234;27;92898;-47
2022/07/07 03:22:36;;;;;;;59.22;50.05;;;23.90;55.30;;;;;;4999774;27;89990;-52
2022/07/07 03:25:02;;;;;;;60.75;50.25;;;23.90;55.30;;;;;;5014444;27;89452;-49
2022/07/07 03:27:28;;;;;;;60.40;49.83;;;23.90;55.20;;;;;;5026487;27;89812;-50
2022/07/07 03:29:53;;;;;;;59.47;49.75;;;23.90;55.30;;;;;;5027210;27;91764;-51
2022/07/07 03:32:19;;;;;;;58.53;49.78;;;23.90;55.30;;;;;;5020793;27;91649;-55
2022/07/07 03:34:44;;;;;;;58.35;49.65;;;23.90;55.40;;;;;;5020508;27;90387;-49
2022/07/07 03:37:10;;;;;;;61.22;50.13;;;23.90;55.30;;;;;;5029990;27;90006;-53
2022/07/07 03:39:36;;;;;;;58.95;49.60;;;23.90;55.40;;;;;;5020780;27;93056;-48
2022/07/07 03:42:01;;;;;;;58.83;49.83;;;23.90;55.30;;;;;;5020973;27;90697;-49
2022/07/07 03:44:28;;;;;;;59.58;49.85;;;23.90;55.50;;;;;;5025308;27;90104;-51
2022/07/07 03:46:54;;;;;;;59.88;49.88;;;23.90;55.40;;;;;;5000892;27;90143;-54
2022/07/07 03:49:20;;;;;;;59.42;49.85;;;23.80;55.30;;;;;;5020054;27;89166;-50
2022/07/07 03:51:45;;;;;;;58.92;49.65;;;23.90;55.30;;;;;;5015575;27;91477;-54
2022/07/07 03:54:12;;;;;;;60.13;49.92;;;23.90;55.30;;;;;;5024809;27;90514;-51
2022/07/07 03:56:39;;;;;;;59.97;49.75;;;23.90;55.40;;;;;;5020326;27;90368;-54
2022/07/07 03:59:04;;;;;;;59.03;49.78;;;23.90;55.30;;;;;;5011224;27;89870;-49
2022/07/07 04:01:30;;;;;;;58.40;49.80;;;23.90;55.30;;;;;;5028790;27;89882;-53
2022/07/07 04:03:55;;;;;;;59.80;49.92;;;23.90;55.20;;;;;;5015496;27;90363;-50
2022/07/07 04:06:21;;;;;;;59.22;49.60;;;23.90;55.20;;;;;;5013556;27;89947;-50
2022/07/07 04:08:47;;;;;;;58.97;49.53;;;23.80;55.20;;;;;;5032412;27;90171;-52
2022/07/07 04:11:12;;;;;;;60.55;50.05;;;23.80;55.30;;;;;;5028100;27;89833;-48
2022/07/07 04:13:38;;;;;;;58.55;49.58;;;23.80;55.30;;;;;;5020495;27;89855;-53
2022/07/07 04:16:04;;;;;;;58.55;49.65;;;23.80;55.30;;;;;;5029914;27;89874;-52
2022/07/07 04:18:30;;;;;;;58.88;49.75;;;23.80;55.20;;;;;;5017429;27;89751;-54
2022/07/07 04:20:55;;;;;;;58.92;49.63;;;23.80;55.40;;;;;;5026419;27;95282;-50
2022/07/07 04:23:21;;;;;;;59.95;50.15;;;23.80;55.30;;;;;;5008820;27;90859;-53
2022/07/07 04:25:46;;;;;;;59.70;49.83;;;23.80;55.40;;;;;;5025884;27;90497;-53
2022/07/07 04:28:12;;;;;;;58.50;49.85;;;23.80;55.40;;;;;;5024874;27;93729;-50
2022/07/07 04:30:38;;;;;;;60.17;49.72;;;23.80;55.30;;;;;;5014946;27;91558;-48
2022/07/07 04:33:03;;;;;;;58.80;49.67;;;23.80;55.20;;;;;;5017525;27;92196;-53
2022/07/07 04:35:29;;;;;;;59.70;49.65;;;23.90;55.40;;;;;;5019214;27;89539;-49
2022/07/07 04:37:55;;;;;;;59.13;49.75;;;23.80;55.30;;;;;;5016260;27;89121;-52
2022/07/07 04:40:20;;;;;;;58.22;49.63;;;23.80;55.20;;;;;;5016430;27;90195;-52
2022/07/07 04:42:46;;;;;;;59.45;49.72;;;23.80;55.20;;;;;;5015537;27;90079;-54
2022/07/07 04:45:12;;;;;;;58.30;49.40;;;23.80;55.20;;;;;;5023166;27;90874;-50
2022/07/07 04:47:41;;;;;;;59.47;50.03;;;23.80;55.50;;;;;;5019429;27;90838;-51
2022/07/07 04:50:08;;;;;;;58.25;49.53;;;23.90;55.50;;;;;;5017681;27;90602;-49
2022/07/07 04:52:35;;;;;;;58.45;49.78;;;23.80;55.50;;;;;;5019349;27;95338;-53
2022/07/07 04:55:00;;;;;;;60.47;49.80;;;23.90;55.50;;;;;;5023671;27;89868;-49
2022/07/07 04:57:26;;;;;;;63.35;49.85;;;23.90;55.50;;;;;;4973680;28;92255;-51
2022/07/07 04:59:51;;;;;;;60.30;50.05;;;23.90;55.50;;;;;;4966518;28;92856;-50
2022/07/07 05:02:17;;;;;;;59.88;49.72;;;23.90;55.70;;;;;;4984872;28;89363;-51
2022/07/07 05:04:43;;;;;;;59.47;49.67;;;23.90;55.80;;;;;;4987496;28;89963;-52
2022/07/07 05:07:08;;;;;;;58.58;49.63;;;23.90;55.80;;;;;;4974774;28;89976;-49
2022/07/07 05:09:34;;;;;;;58.25;49.72;;;23.90;55.90;;;;;;4978550;28;91838;-48
2022/07/07 05:12:01;;;;;;;58.72;49.67;;;23.80;55.90;;;;;;4992019;28;91635;-53
2022/07/07 05:14:27;;;;;;;59.33;49.75;;;23.90;55.70;;;;;;4976529;28;89556;-51
2022/07/07 05:16:53;;;;;;;59.72;49.80;;;23.90;55.80;;;;;;4978335;28;89574;-54
2022/07/07 05:19:18;;;;;;;60.03;49.65;;;23.90;55.70;;;;;;4979731;28;90223;-53
2022/07/07 05:21:44;;;;;;;58.45;49.63;;;23.90;55.70;;;;;;4984964;28;89817;-52
2022/07/07 05:24:10;;;;;;;58.92;49.55;;;23.80;55.70;;;;;;4977392;28;89703;-53
2022/07/07 05:26:36;;;;;;;58.75;49.58;;;23.90;55.50;;;;;;4971822;28;93291;-48
2022/07/07 05:29:02;;;;;;;59.05;49.55;;;23.80;55.60;;;;;;4972539;28;90162;-55
2022/07/07 05:31:28;;;;;;;58.75;49.65;;;23.90;55.60;;;;;;4982881;28;91066;-54
2022/07/07 05:33:53;;;;;;;60.03;49.65;;;23.90;55.70;;;;;;4973650;28;90617;-52
2022/07/07 05:36:19;;;;;;;59.55;49.67;;;23.90;55.70;;;;;;4964073;28;91627;-51
2022/07/07 05:38:45;;;;;;;58.70;49.72;;;23.90;55.80;;;;;;4977334;28;90228;-54
2022/07/07 05:41:11;;;;;;;60.30;49.83;;;23.90;55.80;;;;;;4975034;28;92719;-49
2022/07/07 05:43:37;;;;;;;58.33;49.85;;;23.90;55.90;;;;;;4979357;28;93004;-52
2022/07/07 05:46:03;;;;;;;59.83;49.83;;;23.90;55.90;;;;;;4964889;28;93211;-51
2022/07/07 05:48:28;;;;;;;59.72;49.65;;;23.90;55.80;;;;;;4976318;28;90982;-54
2022/07/07 05:50:54;;;;;;;59.83;49.72;;;23.90;55.80;;;;;;4977463;28;89860;-49
2022/07/07 05:53:20;;;;;;;59.45;49.88;;;23.90;55.70;;;;;;4976178;28;89828;-48
2022/07/07 05:55:45;;;;;;;59.42;49.72;;;24.00;55.60;;;;;;4995905;27;90896;-53
2022/07/07 05:58:12;;;;;;;59.33;49.63;;;23.90;55.80;;;;;;5003266;27;91146;-49
2022/07/07 06:00:38;;;;;;;58.35;49.33;;;23.90;55.90;;;;;;5015576;27;91082;-54
2022/07/07 06:03:03;;;;;;;59.03;49.95;;;23.90;56.00;;;;;;5007773;27;89930;-50
2022/07/07 06:05:29;;;;;;;59.00;49.53;;;23.90;55.90;;;;;;4998678;27;89878;-50
2022/07/07 06:07:55;;;;;;;58.92;49.67;;;24.00;55.90;;;;;;5023404;27;90259;-54
2022/07/07 06:10:20;;;;;;;58.33;49.70;;;24.00;55.80;;;;;;5020054;27;91873;-52
2022/07/07 06:12:46;;;;;;;58.05;49.65;;;23.90;55.80;;;;;;5012794;27;89952;-54
2022/07/07 06:15:12;;;;;;;58.70;49.38;;;23.90;55.80;;;;;;5020238;27;90800;-53
2022/07/07 06:17:38;;;;;;;59.78;49.55;;;23.90;55.70;;;;;;5012929;27;91977;-54
2022/07/07 06:20:04;;;;;;;58.65;49.65;;;23.90;55.80;;;;;;5017342;27;90551;-54
2022/07/07 06:22:30;;;;;;;58.78;49.85;;;23.90;55.80;;;;;;5014382;27;91103;-54
2022/07/07 06:24:55;;;;;;;58.20;49.65;;;23.90;55.80;;;;;;5013572;27;92344;-52
2022/07/07 06:27:21;;;;;;;59.13;49.75;;;23.90;55.60;;;;;;5004596;27;90085;-53
2022/07/07 06:29:47;;;;;;;58.90;49.45;;;23.90;55.40;;;;;;5017959;27;89933;-54
2022/07/07 06:32:16;;;;;;;59.08;49.40;;;23.90;55.50;;;;;;5023008;27;89909;-50
2022/07/07 06:34:42;;;;;;;58.60;49.55;;;23.90;55.40;;;;;;5008011;27;93040;-51
2022/07/07 06:37:08;;;;;;;57.60;49.13;;;23.80;55.50;;;;;;5016749;27;90107;-52
2022/07/07 06:39:34;;;;;;;58.30;49.60;;;23.80;55.60;;;;;;5013320;27;91380;-54
2022/07/07 06:42:00;;;;;;;58.92;49.45;;;23.80;55.60;;;;;;5013436;27;89562;-51
2022/07/07 06:44:30;;;;;;;59.45;49.15;;;23.80;55.70;;;;;;5017791;27;91337;-54
2022/07/07 06:47:00;;;;;;;59.42;49.08;;;23.80;55.80;;;;;;5014046;27;91110;-52
2022/07/07 06:49:27;;;;;;;57.53;49.15;;;23.80;55.70;;;;;;5020458;27;90850;-51
2022/07/07 06:51:53;;;;;;;57.75;49.25;;;23.80;55.60;;;;;;5021244;27;93310;-51
2022/07/07 06:54:19;;;;;;;57.42;48.95;;;23.80;55.70;;;;;;5011501;27;89898;-52
2022/07/07 06:56:45;;;;;;;57.33;49.08;;;23.80;55.70;;;;;;5027910;27;89857;-50
2022/07/07 06:59:11;;;;;;;58.20;49.35;;;23.80;55.80;;;;;;5025465;27;89973;-51
2022/07/07 07:01:37;;;;;;;57.60;49.00;;;23.80;55.90;;;;;;5016933;27;90723;-53
2022/07/07 07:04:03;;;;;;;58.30;49.28;;;23.80;56.10;;;;;;5026813;27;88916;-53
2022/07/07 07:06:29;;;;;;;57.40;49.03;;;23.80;56.30;;;;;;5014846;27;92161;-52
2022/07/07 07:08:55;;;;;;;58.88;49.38;;;23.90;56.20;;;;;;5006148;27;90004;-53
2022/07/07 07:11:21;;;;;;;59.08;49.45;;;23.90;56.20;;;;;;5019729;27;90508;-54
2022/07/07 07:13:47;;;;;;;58.65;49.33;;;23.90;56.10;;;;;;5024122;27;90017;-53
2022/07/07 07:16:15;;;;;;;58.10;49.42;;;23.90;56.10;;;;;;5018013;27;91100;-53
2022/07/07 07:18:40;;;;;;;57.47;49.03;;;23.90;55.90;;;;;;5024603;27;90286;-51
2022/07/07 07:21:06;;;;;;;57.45;49.22;;;23.90;55.90;;;;;;5017245;27;90061;-54
2022/07/07 07:23:32;;;;;;;59.10;49.38;;;23.90;56.00;;;;;;5014851;27;92736;-49
2022/07/07 07:25:57;;;;;;;58.25;49.40;;;24.00;56.20;;;;;;5023237;27;90068;-52
2022/07/07 07:28:23;;;;;;;58.95;49.60;;;23.90;56.00;;;;;;5013761;27;89796;-50
2022/07/07 07:30:49;;;;;;;58.45;49.33;;;23.90;55.90;;;;;;5020070;27;90388;-54
2022/07/07 07:33:14;;;;;;;58.13;49.45;;;24.00;56.00;;;;;;5016381;27;90051;-53
2022/07/07 07:35:40;;;;;;;59.08;49.58;;;24.00;55.80;;;;;;5021259;27;90714;-52
2022/07/07 07:38:06;;;;;;;58.92;49.47;;;23.90;55.90;;;;;;5005813;27;92488;-52
2022/07/07 07:40:32;;;;;;;58.55;49.45;;;23.90;55.70;;;;;;5010319;27;90187;-51
2022/07/07 07:42:58;;;;;;;58.33;49.33;;;23.90;55.80;;;;;;5016791;27;92263;-53
2022/07/07 07:45:24;;;;;;;58.63;49.42;;;23.90;55.90;;;;;;5020111;27;90292;-52
2022/07/07 07:47:50;;;;;;;58.00;49.38;;;23.90;56.10;;;;;;5016643;27;89873;-51
2022/07/07 07:50:18;;;;;;;58.35;49.35;;;23.90;55.90;;;;;;5011208;27;96578;-52
2022/07/07 07:52:45;;;;;;;59.03;49.45;;;23.90;55.80;;;;;;5025962;27;89358;-54
2022/07/07 07:55:13;;;;;;;58.53;49.47;;;24.00;55.80;;;;;;5025140;27;89539;-51
2022/07/07 07:57:38;;;;;;;59.13;49.55;;;24.00;55.80;;;;;;5016524;27;92506;-52
2022/07/07 08:00:07;;;;;;;60.13;49.53;;;23.90;55.80;;;;;;5023545;27;90432;-50
2022/07/07 08:02:32;;;;;;;59.50;49.60;;;24.00;55.80;;;;;;5030502;27;89966;-51
2022/07/07 08:04:58;;;;;;;58.55;49.53;;;24.00;55.80;;;;;;5015608;27;92936;-49
2022/07/07 08:07:24;;;;;;;58.28;49.50;;;24.00;55.70;;;;;;5017700;27;92037;-54
2022/07/07 08:09:49;;;;;;;59.00;49.50;;;23.90;55.70;;;;;;5006815;27;90142;-52
2022/07/07 08:12:15;;;;;;;59.33;49.45;;;24.00;55.80;;;;;;5018001;27;91549;-48
2022/07/07 08:14:41;;;;;;;59.05;49.72;;;24.00;55.70;;;;;;5013150;27;90199;-53
2022/07/07 08:17:07;;;;;;;58.53;49.60;;;24.00;55.70;;;;;;5015219;27;91113;-51
2022/07/07 08:19:32;;;;;;;60.65;49.83;;;23.90;55.70;;;;;;5016647;27;90259;-49
2022/07/07 08:21:58;;;;;;;58.47;49.58;;;24.00;55.70;;;;;;5021968;27;91329;-50
2022/07/07 08:24:24;;;;;;;60.20;49.85;;;24.00;55.70;;;;;;5015487;27;91391;-53
2022/07/07 08:26:50;;;;;;;59.05;49.78;;;24.00;55.60;;;;;;5006457;27;93830;-53
2022/07/07 08:29:15;;;;;;;60.10;49.92;;;24.00;55.50;;;;;;5015789;27;90315;-50
2022/07/07 08:31:41;;;;;;;59.83;49.97;;;24.00;55.50;;;;;;5010333;27;90074;-52
2022/07/07 08:34:07;;;;;;;59.55;49.80;;;24.00;55.50;;;;;;5012632;27;90868;-52
2022/07/07 08:36:33;;;;;;;59.70;49.88;;;24.10;55.50;;;;;;5020086;27;91342;-52
2022/07/07 08:39:00;;;;;;;59.00;49.75;;;24.10;55.40;;;;;;5023089;27;90604;-51
2022/07/07 08:41:26;;;;;;;59.78;49.92;;;24.10;55.40;;;;;;5012365;27;89282;-52
2022/07/07 08:43:52;;;;;;;59.33;49.85;;;24.10;55.40;;;;;;5017362;27;89621;-53
2022/07/07 08:46:18;;;;;;;59.05;49.83;;;24.10;55.40;;;;;;5009052;27;90370;-50
2022/07/07 08:48:44;;;;;;;59.83;49.80;;;24.10;55.40;;;;;;5013167;27;90692;-51
2022/07/07 08:51:11;;;;;;;59.22;49.92;;;24.10;55.40;;;;;;5025974;27;89886;-54
2022/07/07 08:53:37;;;;;;;60.72;49.95;;;24.10;55.40;;;;;;5015262;27;90081;-54
2022/07/07 08:56:04;;;;;;;59.88;49.95;;;24.20;55.40;;;;;;5026207;27;90322;-49
2022/07/07 08:58:31;;;;;;;59.80;49.97;;;24.10;55.20;;;;;;5025420;27;89312;-48
2022/07/07 09:00:57;;;;;;;59.05;49.78;;;24.20;55.30;;;;;;5015122;27;91166;-49
2022/07/07 09:03:26;;;;;;;59.97;49.95;;;24.20;55.30;;;;;;5000703;27;89995;-52
2022/07/07 09:05:55;;;;;;;59.13;49.92;;;24.20;55.30;;;;;;5019177;27;92690;-53
2022/07/07 09:08:22;;;;;;;59.30;49.80;;;24.20;55.30;;;;;;5028752;27;92326;-48
2022/07/07 09:10:48;;;;;;;58.95;49.78;;;24.20;55.30;;;;;;5018053;27;90047;-53
2022/07/07 09:13:21;;;;;;;59.67;49.97;;;24.20;55.20;;;;;;5013138;27;92166;-53
2022/07/07 09:15:48;;;;;;;62.28;49.85;;;24.20;55.10;;;;;;5013921;27;95204;-53
2022/07/07 09:18:37;;;;;;;60.83;49.90;;;24.30;55.00;;;;;;5017117;27;92400;-53
2022/07/07 09:21:05;;;;;;;60.05;50.08;;;24.20;55.00;;;;;;5016640;27;90110;-51
2022/07/07 09:23:32;;;;;;;60.58;50.03;;;24.20;55.00;;;;;;5022339;27;89868;-51
2022/07/07 09:25:59;;;;;;;60.90;49.95;;;24.30;55.10;;;;;;5006431;27;94511;-55
2022/07/07 09:28:26;;;;;;;60.33;50.08;;;24.20;54.90;;;;;;5023954;27;89704;-52
2022/07/07 09:30:53;;;;;;;59.53;49.88;;;24.20;55.10;;;;;;5017709;27;91600;-52
2022/07/07 09:33:22;;;;;;;60.15;50.03;;;24.30;55.00;;;;;;5009104;27;92480;-51
2022/07/07 09:38:35;;;;;;;61.05;49.97;;;24.30;55.00;;;;;;5006650;27;91594;-53
2022/07/07 09:41:17;;;;;;;59.47;49.92;;;24.30;54.80;;;;;;5026266;27;89624;-53
2022/07/07 09:43:45;;;;;;;59.67;49.80;;;24.30;54.90;;;;;;5013295;27;90970;-55
2022/07/07 09:46:15;;;;;;;60.05;49.95;;;24.20;55.00;;;;;;5024133;27;89490;-50
2022/07/07 09:48:52;;;;;;;59.50;49.88;;;24.30;55.00;;;;;;5010674;27;90299;-54
2022/07/07 09:51:32;;;;;;;60.13;50.13;;;24.30;55.00;;;;;;5016393;27;90041;-54
2022/07/07 09:54:00;;;;;;;60.72;50.08;;;24.40;55.00;;;;;;5021181;27;89785;-50
2022/07/07 09:56:27;;;;;;;60.38;49.97;;;24.40;54.90;;;;;;5027070;27;93480;-52
2022/07/07 09:58:53;;;;;;;59.47;49.85;;;24.40;54.70;;;;;;5006384;27;89475;-50
2022/07/07 10:01:24;;;;;;;59.53;49.85;;;24.40;54.90;;;;;;4995859;27;90508;-51
2022/07/07 10:04:01;;;;;;;59.75;49.90;;;24.40;54.80;;;;;;5016922;27;91448;-50
2022/07/07 10:06:29;;;;;;;60.20;50.20;;;24.40;54.80;;;;;;5012287;27;91557;-53
2022/07/07 10:08:57;;;;;;;60.58;49.90;;;24.40;54.90;;;;;;5017067;27;90170;-49
2022/07/07 10:11:32;;;;;;;60.08;49.88;;;24.40;54.70;;;;;;5015735;27;90086;-52
2022/07/07 10:14:21;;;;;;;59.92;50.05;;;24.40;54.80;;;;;;5010068;27;90209;-54
2022/07/07 10:16:49;;;;;;;59.75;49.85;;;24.30;54.70;;;;;;5011140;27;93820;-50
2022/07/07 10:19:18;;;;;;;60.67;50.20;;;24.30;54.70;;;;;;5020358;27;91936;-53
2022/07/07 10:21:45;;;;;;;59.00;49.92;;;24.30;54.90;;;;;;5019634;27;88782;-54
2022/07/07 10:24:12;;;;;;;59.67;49.97;;;24.20;54.90;;;;;;5015881;27;92427;-52
2022/07/07 10:26:46;;;;;;;61.17;50.17;;;24.30;54.90;;;;;;5014639;27;90237;-49
2022/07/07 10:29:12;;;;;;;60.92;50.00;;;24.30;54.90;;;;;;5024256;27;90962;-49
2022/07/07 10:31:38;;;;;;;60.75;50.05;;;24.30;54.90;;;;;;5012336;27;90317;-54
2022/07/07 10:34:07;;;;;;;59.95;50.00;;;24.40;54.90;;;;;;5013901;27;93670;-53
2022/07/07 10:37:00;;;;;;;60.72;49.95;;;24.40;54.90;;;;;;5009234;27;95290;-51
2022/07/07 10:39:30;;;;;;;60.80;49.95;;;24.40;54.80;;;;;;4999513;27;90426;-54
2022/07/07 10:42:11;;;;;;;59.27;49.83;;;24.40;54.80;;;;;;5029241;27;91654;-50
2022/07/07 10:44:42;;;;;;;59.83;50.05;;;24.50;54.80;;;;;;5026522;27;89855;-51
2022/07/07 10:47:16;;;;;;;60.95;50.22;;;24.50;54.80;;;;;;5015109;27;90507;-53
2022/07/07 10:49:51;;;;;;;61.55;50.13;;;24.60;54.80;;;;;;5015887;27;89610;-49
2022/07/07 10:52:25;;;;;;;60.90;50.30;;;24.60;54.60;;;;;;5003777;27;90524;-51
2022/07/07 10:54:51;;;;;;;59.97;50.13;;;24.70;54.60;;;;;;5011516;27;91136;-49
2022/07/07 10:57:19;;;;;;;59.83;49.90;;;24.70;54.40;;;;;;5018020;27;91721;-51
2022/07/07 10:59:59;;;;;;;59.70;50.05;;;24.60;54.20;;;;;;5019297;27;89930;-53
2022/07/07 11:02:49;;;;;;;60.20;50.10;;;24.60;54.20;;;;;;5013713;27;90305;-51
2022/07/07 11:05:14;;;;;;;60.15;50.05;;;24.50;54.40;;;;;;5005151;27;92048;-54
2022/07/07 11:08:07;;;;;;;60.63;50.22;;;24.50;54.50;;;;;;5007501;27;89860;-54
2022/07/07 11:10:42;;;;;;;60.05;50.10;;;24.50;54.50;;;;;;5014213;27;92573;-54
2022/07/07 11:13:16;;;;;;;60.30;50.30;;;24.60;54.60;;;;;;5013068;27;89040;-52
2022/07/07 11:15:47;;;;;;;59.97;50.20;;;24.70;54.50;;;;;;5016977;27;90035;-53
2022/07/07 11:18:18;;;;;;;60.17;50.08;;;24.70;54.40;;;;;;5017368;27;90954;-52
2022/07/07 11:21:01;;;;;;;61.67;50.20;;;24.70;54.30;;;;;;5012535;27;90685;-50
2022/07/07 11:23:41;;;;;;;59.67;50.13;;;24.70;54.20;;;;;;5013998;27;89924;-52
2022/07/07 11:26:07;;;;;;;59.70;50.20;;;24.70;54.20;;;;;;5011385;27;90768;-53
2022/07/07 11:28:35;;;;;;;60.40;50.45;;;24.70;54.30;;;;;;5002912;27;92538;-53
2022/07/07 11:31:11;;;;;;;61.72;50.45;;;24.70;54.30;;;;;;5017901;27;90128;-51
2022/07/07 11:33:38;;;;;;;61.25;50.15;;;24.70;54.30;;;;;;5020667;27;90268;-49
2022/07/07 11:36:18;;;;;;;60.53;50.42;;;24.80;54.30;;;;;;5017815;27;90256;-48
2022/07/07 11:38:45;;;;;;;60.05;50.13;;;24.70;54.30;;;;;;5007311;27;91833;-54
2022/07/07 11:41:11;;;;;;;60.10;50.38;;;24.80;54.30;;;;;;5019279;27;90256;-47
2022/07/07 11:43:36;;;;;;;62.08;50.55;;;24.80;54.20;;;;;;5022006;27;90043;-49
2022/07/07 11:46:03;;;;;;;60.20;50.17;;;24.80;54.10;;;;;;5022026;27;91679;-54
2022/07/07 11:48:37;;;;;;;59.95;50.10;;;24.80;54.20;;;;;;5018702;27;90120;-54
2022/07/07 11:51:04;;;;;;;59.72;49.90;;;24.80;54.10;;;;;;5019592;27;90346;-47
2022/07/07 11:53:30;;;;;;;59.65;49.95;;;24.80;54.20;;;;;;5025587;27;91107;-50
2022/07/07 11:55:55;;;;;;;60.20;50.25;;;24.80;54.10;;;;;;5027034;27;91665;-51
2022/07/07 11:58:21;;;;;;;61.33;50.30;;;24.80;54.00;;;;;;5012577;27;90123;-54
2022/07/07 12:00:47;;;;;;;61.17;50.10;;;24.80;54.10;;;;;;5019566;27;89754;-47
2022/07/07 12:03:12;;;;;;;61.28;50.20;;;24.90;54.00;;;;;;5011477;27;89300;-52
2022/07/07 12:05:43;;;;;;;60.22;50.15;;;24.90;54.00;;;;;;5004793;27;90459;-52
2022/07/07 12:08:14;;;;;;;60.05;50.40;;;24.90;54.00;;;;;;5014680;27;90449;-54
2022/07/07 12:10:53;;;;;;;60.67;50.33;;;24.90;54.00;;;;;;5027270;27;90487;-52
2022/07/07 12:13:19;;;;;;;60.97;50.35;;;24.90;54.00;;;;;;5027437;27;90877;-50
2022/07/07 12:15:48;;;;;;;61.55;50.15;;;24.90;54.00;;;;;;5007550;27;91478;-54
2022/07/07 12:18:20;;;;;;;61.50;50.40;;;24.90;54.10;;;;;;5014520;27;90651;-52
2022/07/07 12:20:56;;;;;;;60.50;50.50;;;24.90;54.00;;;;;;5018307;27;89671;-49
2022/07/07 12:23:22;;;;;;;60.13;50.38;;;25.00;53.90;;;;;;5014544;27;90121;-48
2022/07/07 12:25:47;;;;;;;61.65;50.45;;;24.90;53.90;;;;;;5015552;27;90165;-51
2022/07/07 12:28:13;;;;;;;60.97;50.55;;;24.90;54.00;;;;;;5017901;27;93638;-52
2022/07/07 12:30:56;;;;;;;60.95;50.53;;;24.90;54.10;;;;;;5018602;27;89919;-53